Time,TemperatureF,DewpointF,PressureIn,WindDirection,WindDirectionDegrees,WindSpeedMPH,WindSpeedGustMPH,Humidity,HourlyPrecipIn,Conditions,Clouds,dailyrainin,SolarRadiationWatts/m^2,SoftwareType,DateUTC
2013-10-09 00:44:00,56.0,55.0,-100.00,NNE,30,1.0,2.0,97,0.00,,,0.00,0.000000,,2013-10-09 04:44:00,
2013-10-09 00:54:00,56.0,55.0,-100.00,NNE,30,1.0,2.0,97,0.00,,,0.00,0.000000,,2013-10-09 04:54:00,
2013-10-09 01:04:00,56.0,55.0,-100.00,NNE,30,1.0,2.0,97,0.00,,,0.00,0.000000,,2013-10-09 05:04:00,
2013-10-09 01:42:00,56.0,55.0,-100.00,NE,45,0.0,1.0,97,0.00,,,0.00,0.000000,,2013-10-09 05:42:00,
2013-10-09 01:52:00,56.0,55.0,-100.00,NE,45,0.0,1.0,97,0.00,,,0.00,0.000000,,2013-10-09 05:52:00,
2013-10-09 02:02:00,56.0,55.0,-100.00,NE,45,0.0,1.0,97,0.00,,,0.00,0.000000,,2013-10-09 06:02:00,
2013-10-09 02:42:00,55.0,54.0,-100.00,NNE,31,1.0,2.0,97,0.00,,,0.00,0.000000,,2013-10-09 06:42:00,
2013-10-09 02:52:00,55.0,54.0,-100.00,NNE,31,1.0,2.0,97,0.00,,,0.00,0.000000,,2013-10-09 06:52:00,
2013-10-09 03:02:00,55.0,54.0,-100.00,NNE,31,1.0,2.0,97,0.00,,,0.00,0.000000,,2013-10-09 07:02:00,
2013-10-09 03:42:00,53.0,52.0,-100.00,NE,41,1.0,2.0,97,0.00,,,0.00,0.000000,,2013-10-09 07:42:00,
2013-10-09 03:52:00,53.0,52.0,-100.00,NE,41,1.0,2.0,97,0.00,,,0.00,0.000000,,2013-10-09 07:52:00,
2013-10-09 04:02:00,53.0,52.0,-100.00,NE,41,1.0,2.0,97,0.00,,,0.00,0.000000,,2013-10-09 08:02:00,
2013-10-09 04:42:00,52.0,51.0,-100.00,NE,42,1.0,2.0,97,0.00,,,0.00,0.000000,,2013-10-09 08:42:00,
2013-10-09 04:53:00,52.0,51.0,-100.00,NE,42,1.0,2.0,97,0.00,,,0.00,0.000000,,2013-10-09 08:53:00,
2013-10-09 05:02:00,52.0,51.0,-100.00,NE,42,1.0,2.0,97,0.00,,,0.00,0.000000,,2013-10-09 09:02:00,
2013-10-09 05:43:00,51.0,50.0,-100.00,NNE,33,2.0,4.0,97,0.00,,,0.00,0.000000,,2013-10-09 09:43:00,
2013-10-09 05:53:00,51.0,50.0,-100.00,NNE,33,2.0,4.0,97,0.00,,,0.00,0.000000,,2013-10-09 09:53:00,
2013-10-09 06:03:00,51.0,50.0,-100.00,NNE,33,2.0,4.0,97,0.00,,,0.00,0.000000,,2013-10-09 10:03:00,
2013-10-09 06:43:00,51.0,50.0,-100.00,NE,37,0.0,2.0,97,0.00,,,0.00,0.000000,,2013-10-09 10:43:00,
2013-10-09 06:53:00,51.0,50.0,-100.00,NE,37,0.0,2.0,97,0.00,,,0.00,0.000000,,2013-10-09 10:53:00,
2013-10-09 07:02:00,51.0,50.0,-100.00,NE,37,0.0,2.0,97,0.00,,,0.00,0.000000,,2013-10-09 11:02:00,
2013-10-09 07:42:00,50.0,49.0,-100.00,NNE,33,1.0,3.0,98,0.00,,,0.00,0.000000,,2013-10-09 11:42:00,
2013-10-09 07:52:00,50.0,49.0,-100.00,NNE,33,1.0,3.0,98,0.00,,,0.00,0.000000,,2013-10-09 11:52:00,
2013-10-09 08:01:00,50.0,49.0,-100.00,NNE,33,1.0,3.0,98,0.00,,,0.00,0.000000,,2013-10-09 12:01:00,
2013-10-09 08:42:00,51.0,50.0,-100.00,NE,50,0.0,4.0,98,0.00,,,0.00,8.000000,,2013-10-09 12:42:00,
2013-10-09 08:52:00,51.0,50.0,-100.00,NE,50,0.0,4.0,98,0.00,,,0.00,8.000000,,2013-10-09 12:52:00,
2013-10-09 09:02:00,51.0,50.0,-100.00,NE,50,0.0,4.0,98,0.00,,,0.00,8.000000,,2013-10-09 13:02:00,
2013-10-09 09:42:00,53.0,52.0,-100.00,NNE,29,2.0,4.0,98,0.00,,,0.00,75.000000,,2013-10-09 13:42:00,
2013-10-09 09:52:00,53.0,52.0,-100.00,NNE,29,2.0,4.0,98,0.00,,,0.00,75.000000,,2013-10-09 13:52:00,
2013-10-09 10:02:00,53.0,52.0,-100.00,NNE,29,2.0,4.0,98,0.00,,,0.00,75.000000,,2013-10-09 14:02:00,
2013-10-09 10:42:00,56.0,55.0,-100.00,North,6,2.0,4.0,95,0.00,,,0.00,195.000000,,2013-10-09 14:42:00,
2013-10-09 10:52:00,56.0,55.0,-100.00,North,6,2.0,4.0,95,0.00,,,0.00,195.000000,,2013-10-09 14:52:00,
2013-10-09 11:02:00,56.0,55.0,-100.00,North,6,2.0,4.0,95,0.00,,,0.00,195.000000,,2013-10-09 15:02:00,
2013-10-09 11:43:00,65.0,58.0,-100.00,NNE,20,3.0,5.0,77,0.00,,,0.00,574.000000,,2013-10-09 15:43:00,
2013-10-09 11:53:00,65.0,58.0,-100.00,NNE,20,3.0,5.0,77,0.00,,,0.00,574.000000,,2013-10-09 15:53:00,
2013-10-09 12:03:00,65.0,58.0,-100.00,NNE,20,3.0,5.0,77,0.00,,,0.00,574.000000,,2013-10-09 16:03:00,
2013-10-09 12:42:00,71.0,56.0,-100.00,NNE,13,3.0,6.0,60,0.00,,,0.00,721.000000,,2013-10-09 16:42:00,
2013-10-09 12:53:00,71.0,56.0,-100.00,NNE,13,3.0,6.0,60,0.00,,,0.00,721.000000,,2013-10-09 16:53:00,
2013-10-09 13:03:00,71.0,56.0,-100.00,NNE,13,3.0,6.0,60,0.00,,,0.00,721.000000,,2013-10-09 17:03:00,
2013-10-09 13:42:00,73.0,58.0,-100.00,North,9,4.0,6.0,59,0.00,,,0.00,817.000000,,2013-10-09 17:42:00,
2013-10-09 13:52:00,73.0,58.0,-100.00,North,9,4.0,6.0,59,0.00,,,0.00,817.000000,,2013-10-09 17:52:00,
2013-10-09 14:02:00,73.0,58.0,-100.00,North,9,4.0,6.0,59,0.00,,,0.00,817.000000,,2013-10-09 18:02:00,
2013-10-09 14:42:00,76.0,58.0,-100.00,North,8,5.0,10.0,54,0.00,,,0.00,852.000000,,2013-10-09 18:42:00,
2013-10-09 14:52:00,76.0,58.0,-100.00,North,8,5.0,10.0,54,0.00,,,0.00,852.000000,,2013-10-09 18:52:00,
2013-10-09 15:02:00,76.0,58.0,-100.00,North,8,5.0,10.0,54,0.00,,,0.00,852.000000,,2013-10-09 19:02:00,
2013-10-09 15:42:00,78.0,60.0,-100.00,North,7,5.0,10.0,54,0.00,,,0.00,810.000000,,2013-10-09 19:42:00,
2013-10-09 15:53:00,78.0,60.0,-100.00,North,7,5.0,10.0,54,0.00,,,0.00,810.000000,,2013-10-09 19:53:00,
2013-10-09 16:02:00,78.0,60.0,-100.00,North,7,5.0,10.0,54,0.00,,,0.00,810.000000,,2013-10-09 20:02:00,
2013-10-09 16:43:00,76.0,58.0,-100.00,NNE,17,6.0,13.0,54,0.00,,,0.00,697.000000,,2013-10-09 20:43:00,
2013-10-09 16:52:00,76.0,58.0,-100.00,NNE,17,6.0,13.0,54,0.00,,,0.00,697.000000,,2013-10-09 20:52:00,
2013-10-09 17:03:00,76.0,58.0,-100.00,NNE,17,6.0,13.0,54,0.00,,,0.00,697.000000,,2013-10-09 21:03:00,
2013-10-09 17:44:00,74.0,57.0,-100.00,NNE,12,6.0,12.0,55,0.00,,,0.00,524.000000,,2013-10-09 21:44:00,
2013-10-09 17:54:00,74.0,57.0,-100.00,NNE,12,6.0,12.0,55,0.00,,,0.00,524.000000,,2013-10-09 21:54:00,
2013-10-09 18:03:00,74.0,57.0,-100.00,NNE,12,6.0,12.0,55,0.00,,,0.00,524.000000,,2013-10-09 22:03:00,
2013-10-09 18:43:00,72.0,56.0,-100.00,North,8,5.0,11.0,57,0.00,,,0.00,316.000000,,2013-10-09 22:43:00,
2013-10-09 18:53:00,72.0,56.0,-100.00,North,8,5.0,11.0,57,0.00,,,0.00,316.000000,,2013-10-09 22:53:00,
2013-10-09 19:03:00,72.0,56.0,-100.00,North,8,5.0,11.0,57,0.00,,,0.00,316.000000,,2013-10-09 23:03:00,
2013-10-09 19:43:00,65.0,55.0,-100.00,NNE,22,1.0,9.0,69,0.00,,,0.00,95.000000,,2013-10-09 23:43:00,
2013-10-09 19:53:00,65.0,55.0,-100.00,NNE,22,1.0,9.0,69,0.00,,,0.00,95.000000,,2013-10-09 23:53:00,
2013-10-09 20:02:00,65.0,55.0,-100.00,NNE,22,1.0,9.0,69,0.00,,,0.00,95.000000,,2013-10-10 00:02:00,
2013-10-09 20:42:00,60.0,56.0,-100.00,North,5,0.0,2.0,86,0.00,,,0.00,1.000000,,2013-10-10 00:42:00,
2013-10-09 20:52:00,60.0,56.0,-100.00,North,5,0.0,2.0,86,0.00,,,0.00,1.000000,,2013-10-10 00:52:00,
2013-10-09 21:02:00,60.0,56.0,-100.00,North,5,0.0,2.0,86,0.00,,,0.00,1.000000,,2013-10-10 01:02:00,
2013-10-09 21:42:00,58.0,56.0,-100.00,NNE,13,0.0,2.0,94,0.00,,,0.00,0.000000,,2013-10-10 01:42:00,
2013-10-09 21:52:00,58.0,56.0,-100.00,NNE,13,0.0,2.0,94,0.00,,,0.00,0.000000,,2013-10-10 01:52:00,
2013-10-09 22:02:00,58.0,56.0,-100.00,NNE,13,0.0,2.0,94,0.00,,,0.00,0.000000,,2013-10-10 02:02:00,
2013-10-09 22:52:00,56.0,55.0,-100.00,NNE,12,1.0,2.0,96,0.00,,,0.00,0.000000,,2013-10-10 02:52:00,
2013-10-09 23:02:00,56.0,55.0,-100.00,NNE,12,1.0,2.0,96,0.00,,,0.00,0.000000,,2013-10-10 03:02:00,
2013-10-09 23:44:00,54.0,53.0,-100.00,NNE,13,1.0,2.0,97,0.00,,,0.00,0.000000,,2013-10-10 03:44:00,
2013-10-09 23:55:00,54.0,53.0,-100.00,NNE,13,1.0,2.0,97,0.00,,,0.00,0.000000,,2013-10-10 03:55:00,